Milos — 8PAL6 — position and weather

sailwx.info

Track history (hours):
 
Tides and Currents Weather Stations Pressure Air Temp Water Temp Dewpoint Dewpoint Depression Visibility Wind Speed Wind Dir Waves Ship Positions

Milos

Last reported at 2017-Aug-20 19:43 UTC. Time now 2017-Sep-26 16:36 UTC.
Position N 27°40' W 015°12'.
Warning: this ship's position is 36 days out of date.

Length 154 m; draft 8.8 m.

Type: Cargo ship. MMSI: 314429000.

Date/timePositionNaut miles runAvg speedWind from/ knotsBaromVisibWave heightAir tempDewpointWater temp
2017-Aug-20 19:43N 27°40' W 015°12'413.7
2017-Aug-20 19:28N 27°44' W 015°11'613.5
2017-Aug-20 19:00N 27°50' W 015°08'613.2
2017-Aug-20 18:31N 27°56' W 015°06'713.0
2017-Aug-20 18:01N 28°02' W 015°03'612.8
2017-Aug-20 17:31N 28°08' W 015°00'612.7
2017-Aug-20 17:00N 28°14' W 014°58'612.6
2017-Aug-20 16:30N 28°20' W 014°55'612.7
2017-Aug-20 16:00N 28°25' W 014°52'612.6
2017-Aug-20 15:30N 28°31' W 014°48'712.6
2017-Aug-20 14:57N 28°37' W 014°44'612.6
2017-Aug-20 14:30N 28°41' W 014°41'612.5
2017-Aug-20 14:00N 28°47' W 014°37'612.4
2017-Aug-20 13:30N 28°52' W 014°33'612.4
2017-Aug-20 13:00N 28°57' W 014°30'612.4
2017-Aug-20 12:30N 29°03' W 014°26'612.3
2017-Aug-20 12:00N 29°08' W 014°23'612.0
2017-Aug-20 11:30N 29°13' W 014°19'612.2
2017-Aug-20 11:00N 29°18' W 014°16'3512.2
2017-Aug-20 08:08N 29°44' W 013°49'212.4
2017-Aug-20 07:59N 29°46' W 013°47'712.6
2017-Aug-20 07:27N 29°50' W 013°42'712.5
2017-Aug-20 06:55N 29°55' W 013°36'512.7
2017-Aug-20 06:31N 29°58' W 013°32'612.7
2017-Aug-20 06:00N 30°03' W 013°26'1112.5
2017-Aug-20 05:07N 30°10' W 013°17'212.9
2017-Aug-20 05:00N 30°11' W 013°15'712.8
2017-Aug-20 04:27N 30°16' W 013°09'4812.6
2017-Aug-20 00:38N 30°49' W 012°29'212.8
2017-Aug-20 00:30N 30°50' W 012°27'3912.7
2017-Aug-19 21:26N 31°17' W 011°54'2612.3
2017-Aug-19 19:19N 31°35' W 011°32'21712.1
2017-Aug-19 01:22N 34°03' W 008°23'511.6
2017-Aug-19 00:54N 34°06' W 008°18'1111.5
2017-Aug-18 23:57N 34°14' W 008°08'511.4
2017-Aug-18 23:31N 34°17' W 008°04'611.4
2017-Aug-18 23:00N 34°21' W 007°59'15211.7
2017-Aug-18 10:00N 35°57' W 005°36'234 7.8
2017-Aug-17 04:07N 36°35' W 000°49'112.5
2017-Aug-17 04:00N 36°35' W 000°48'612.4
2017-Aug-17 03:30N 36°36' W 000°40'2712.7
2017-Aug-17 01:22N 36°40' W 000°07'612.5
2017-Aug-17 00:56N 36°41' E 000°00'712.2
2017-Aug-17 00:21N 36°42' E 000°09'412.0
2017-Aug-17 00:00N 36°42' E 000°14'611.8
2017-Aug-16 23:30N 36°43' E 000°21'612.2
2017-Aug-16 22:59N 36°44' E 000°29'2112.1
2017-Aug-16 21:14N 36°48' E 000°55'412.1
2017-Aug-16 20:52N 36°48' E 001°01'712.6
2017-Aug-16 20:20N 36°49' E 001°09'412.6
2017-Aug-16 20:00N 36°50' E 001°14'1512.8
2017-Aug-16 18:52N 36°50' E 001°32'812.7
2017-Aug-16 18:14N 36°52' E 001°42'312.7
2017-Aug-16 17:59N 36°52' E 001°46'612.6
2017-Aug-16 17:30N 36°53' E 001°54'2312.2
2017-Aug-16 15:36N 36°56' E 002°22'111.9
2017-Aug-16 15:30N 36°56' E 002°24'611.8
2017-Aug-16 15:00N 36°57' E 002°31'611.7
2017-Aug-16 14:30N 36°58' E 002°38'611.8
2017-Aug-16 14:00N 36°59' E 002°46'611.7
2017-Aug-16 13:30N 37°00' E 002°53'611.6
2017-Aug-16 12:57N 37°01' E 003°01'1911.9
2017-Aug-16 11:23N 37°03' E 003°24'411.7
2017-Aug-16 11:00N 37°03' E 003°30'811.8
2017-Aug-16 10:17N 37°04' E 003°40'711.8
2017-Aug-16 09:44N 37°05' E 003°48'511.8
2017-Aug-16 09:16N 37°06' E 003°55'311.8
2017-Aug-16 09:00N 37°06' E 003°59'611.9
2017-Aug-16 08:30N 37°07' E 004°06'711.8
2017-Aug-16 07:56N 37°08' E 004°14'511.5
2017-Aug-16 07:30N 37°09' E 004°21'1111.8
2017-Aug-16 06:32N 37°10' E 004°35'012.3
2017-Aug-16 06:29N 37°10' E 004°36'612.6
2017-Aug-16 06:00N 37°11' E 004°43'712.8
2017-Aug-16 05:29N 37°12' E 004°51'612.7
2017-Aug-16 05:00N 37°13' E 004°59'612.7
2017-Aug-16 04:30N 37°14' E 005°07'612.3
2017-Aug-16 04:00N 37°15' E 005°15'612.0
2017-Aug-16 03:30N 37°15' E 005°22'612.0
2017-Aug-16 03:00N 37°16' E 005°30'612.2
2017-Aug-16 02:30N 37°16' E 005°37'612.2
2017-Aug-16 02:00N 37°17' E 005°45'612.4
2017-Aug-16 01:30N 37°19' E 005°52'612.5
2017-Aug-16 01:00N 37°20' E 006°00'612.4
2017-Aug-16 00:30N 37°20' E 006°08'612.2
2017-Aug-16 00:00N 37°21' E 006°16'612.2
2017-Aug-15 23:30N 37°22' E 006°23'612.0
2017-Aug-15 22:58N 37°23' E 006°31'1111.8
2017-Aug-15 22:03N 37°24' E 006°45'111.7
2017-Aug-15 21:59N 37°24' E 006°46'3412.1
2017-Aug-15 19:11N 37°29' E 007°28'712.3
2017-Aug-15 18:40N 37°30' E 007°36'212.4
2017-Aug-15 18:28N 37°30' E 007°39'612.4
2017-Aug-15 18:00N 37°31' E 007°46'712.5
2017-Aug-15 17:29N 37°32' E 007°54'612.7
2017-Aug-15 17:00N 37°33' E 008°02'713.2
2017-Aug-15 16:28N 37°34' E 008°11'613.5
2017-Aug-15 16:00N 37°35' E 008°19'713.4
2017-Aug-15 15:30N 37°35' E 008°27'713.4
2017-Aug-15 15:00N 37°36' E 008°35'813.1
2017-Aug-15 14:23N 37°37' E 008°45'512.5
2017-Aug-15 14:00N 37°38' E 008°51'612.5
2017-Aug-15 13:30N 37°39' E 008°59'912.6
2017-Aug-15 12:46N 37°39' E 009°11'612.5
2017-Aug-15 12:17N 37°39' E 009°18'412.6
2017-Aug-15 11:59N 37°39' E 009°23'612.5
2017-Aug-15 11:29N 37°39' E 009°31'912.2
2017-Aug-15 10:43N 37°39' E 009°43'312.2
2017-Aug-15 10:30N 37°40' E 009°46'5212.1
2017-Aug-15 06:10N 37°31' E 010°52'7612.6
2017-Aug-15 00:07N 37°03' E 012°21'212.7
2017-Aug-14 23:58N 37°03' E 012°23'612.7
2017-Aug-14 23:30N 37°01' E 012°30'613.0
2017-Aug-14 23:00N 36°59' E 012°38'713.2
2017-Aug-14 22:30N 36°57' E 012°46'713.1
2017-Aug-14 22:00N 36°54' E 012°53'713.2
2017-Aug-14 21:30N 36°52' E 013°01'713.3
2017-Aug-14 21:00N 36°50' E 013°09'713.1
2017-Aug-14 20:30N 36°48' E 013°17'713.0
2017-Aug-14 20:00N 36°46' E 013°25'612.9
2017-Aug-14 19:30N 36°44' E 013°32'713.0
2017-Aug-14 19:00N 36°42' E 013°40'712.9
2017-Aug-14 18:29N 36°40' E 013°48'612.6
2017-Aug-14 18:00N 36°38' E 013°55'612.5
2017-Aug-14 17:30N 36°36' E 014°02'612.4
2017-Aug-14 17:00N 36°34' E 014°10'612.3
2017-Aug-14 16:30N 36°32' E 014°17'612.0
2017-Aug-14 15:59N 36°30' E 014°24'611.8
2017-Aug-14 15:30N 36°28' E 014°31'611.7
2017-Aug-14 14:58N 36°26' E 014°38'  
2017-Aug-11 21:05N 35°52' E 030°22'  
Track history (hours):
 
Tides and Currents Weather Stations Pressure Air Temp Water Temp Dewpoint Dewpoint Depression Visibility Wind Speed Wind Dir Waves Ship Positions

Milos

Last reported at 2017-Aug-20 19:43 UTC. Time now 2017-Sep-26 16:36 UTC.
Position N 27°40' W 015°12'.
Warning: this ship's position is 36 days out of date.

Length 154 m; draft 8.8 m.

Type: Cargo ship. MMSI: 314429000.

Date/timePositionNaut miles runAvg speedWind from/ knotsBaromVisibWave heightAir tempDewpointWater temp
2017-Aug-20 19:43N 27°40' W 015°12'413.7
2017-Aug-20 19:28N 27°44' W 015°11'613.5
2017-Aug-20 19:00N 27°50' W 015°08'613.2
2017-Aug-20 18:31N 27°56' W 015°06'713.0
2017-Aug-20 18:01N 28°02' W 015°03'612.8
2017-Aug-20 17:31N 28°08' W 015°00'612.7
2017-Aug-20 17:00N 28°14' W 014°58'612.6
2017-Aug-20 16:30N 28°20' W 014°55'612.7
2017-Aug-20 16:00N 28°25' W 014°52'612.6
2017-Aug-20 15:30N 28°31' W 014°48'712.6
2017-Aug-20 14:57N 28°37' W 014°44'612.6
2017-Aug-20 14:30N 28°41' W 014°41'612.5
2017-Aug-20 14:00N 28°47' W 014°37'612.4
2017-Aug-20 13:30N 28°52' W 014°33'612.4
2017-Aug-20 13:00N 28°57' W 014°30'612.4
2017-Aug-20 12:30N 29°03' W 014°26'612.3
2017-Aug-20 12:00N 29°08' W 014°23'612.0
2017-Aug-20 11:30N 29°13' W 014°19'612.2
2017-Aug-20 11:00N 29°18' W 014°16'3512.2
2017-Aug-20 08:08N 29°44' W 013°49'212.4
2017-Aug-20 07:59N 29°46' W 013°47'712.6
2017-Aug-20 07:27N 29°50' W 013°42'712.5
2017-Aug-20 06:55N 29°55' W 013°36'512.7
2017-Aug-20 06:31N 29°58' W 013°32'612.7
2017-Aug-20 06:00N 30°03' W 013°26'1112.5
2017-Aug-20 05:07N 30°10' W 013°17'212.9
2017-Aug-20 05:00N 30°11' W 013°15'712.8
2017-Aug-20 04:27N 30°16' W 013°09'4812.6
2017-Aug-20 00:38N 30°49' W 012°29'212.8
2017-Aug-20 00:30N 30°50' W 012°27'3912.7
2017-Aug-19 21:26N 31°17' W 011°54'2612.3
2017-Aug-19 19:19N 31°35' W 011°32'21712.1
2017-Aug-19 01:22N 34°03' W 008°23'511.6
2017-Aug-19 00:54N 34°06' W 008°18'1111.5
2017-Aug-18 23:57N 34°14' W 008°08'511.4
2017-Aug-18 23:31N 34°17' W 008°04'611.4
2017-Aug-18 23:00N 34°21' W 007°59'15211.7
2017-Aug-18 10:00N 35°57' W 005°36'234 7.8
2017-Aug-17 04:07N 36°35' W 000°49'112.5
2017-Aug-17 04:00N 36°35' W 000°48'612.4
2017-Aug-17 03:30N 36°36' W 000°40'2712.7
2017-Aug-17 01:22N 36°40' W 000°07'612.5
2017-Aug-17 00:56N 36°41' E 000°00'712.2
2017-Aug-17 00:21N 36°42' E 000°09'412.0
2017-Aug-17 00:00N 36°42' E 000°14'611.8
2017-Aug-16 23:30N 36°43' E 000°21'612.2
2017-Aug-16 22:59N 36°44' E 000°29'2112.1
2017-Aug-16 21:14N 36°48' E 000°55'412.1
2017-Aug-16 20:52N 36°48' E 001°01'712.6
2017-Aug-16 20:20N 36°49' E 001°09'412.6
2017-Aug-16 20:00N 36°50' E 001°14'1512.8
2017-Aug-16 18:52N 36°50' E 001°32'812.7
2017-Aug-16 18:14N 36°52' E 001°42'312.7
2017-Aug-16 17:59N 36°52' E 001°46'612.6
2017-Aug-16 17:30N 36°53' E 001°54'2312.2
2017-Aug-16 15:36N 36°56' E 002°22'111.9
2017-Aug-16 15:30N 36°56' E 002°24'611.8
2017-Aug-16 15:00N 36°57' E 002°31'611.7
2017-Aug-16 14:30N 36°58' E 002°38'611.8
2017-Aug-16 14:00N 36°59' E 002°46'611.7
2017-Aug-16 13:30N 37°00' E 002°53'611.6
2017-Aug-16 12:57N 37°01' E 003°01'1911.9
2017-Aug-16 11:23N 37°03' E 003°24'411.7
2017-Aug-16 11:00N 37°03' E 003°30'811.8
2017-Aug-16 10:17N 37°04' E 003°40'711.8
2017-Aug-16 09:44N 37°05' E 003°48'511.8
2017-Aug-16 09:16N 37°06' E 003°55'311.8
2017-Aug-16 09:00N 37°06' E 003°59'611.9
2017-Aug-16 08:30N 37°07' E 004°06'711.8
2017-Aug-16 07:56N 37°08' E 004°14'511.5
2017-Aug-16 07:30N 37°09' E 004°21'1111.8
2017-Aug-16 06:32N 37°10' E 004°35'012.3
2017-Aug-16 06:29N 37°10' E 004°36'612.6
2017-Aug-16 06:00N 37°11' E 004°43'712.8
2017-Aug-16 05:29N 37°12' E 004°51'612.7
2017-Aug-16 05:00N 37°13' E 004°59'612.7
2017-Aug-16 04:30N 37°14' E 005°07'612.3
2017-Aug-16 04:00N 37°15' E 005°15'612.0
2017-Aug-16 03:30N 37°15' E 005°22'612.0
2017-Aug-16 03:00N 37°16' E 005°30'612.2
2017-Aug-16 02:30N 37°16' E 005°37'612.2
2017-Aug-16 02:00N 37°17' E 005°45'612.4
2017-Aug-16 01:30N 37°19' E 005°52'612.5
2017-Aug-16 01:00N 37°20' E 006°00'612.4
2017-Aug-16 00:30N 37°20' E 006°08'612.2
2017-Aug-16 00:00N 37°21' E 006°16'612.2
2017-Aug-15 23:30N 37°22' E 006°23'612.0
2017-Aug-15 22:58N 37°23' E 006°31'1111.8
2017-Aug-15 22:03N 37°24' E 006°45'111.7
2017-Aug-15 21:59N 37°24' E 006°46'3412.1
2017-Aug-15 19:11N 37°29' E 007°28'712.3
2017-Aug-15 18:40N 37°30' E 007°36'212.4
2017-Aug-15 18:28N 37°30' E 007°39'612.4
2017-Aug-15 18:00N 37°31' E 007°46'712.5
2017-Aug-15 17:29N 37°32' E 007°54'612.7
2017-Aug-15 17:00N 37°33' E 008°02'713.2
2017-Aug-15 16:28N 37°34' E 008°11'613.5
2017-Aug-15 16:00N 37°35' E 008°19'713.4
2017-Aug-15 15:30N 37°35' E 008°27'713.4
2017-Aug-15 15:00N 37°36' E 008°35'813.1
2017-Aug-15 14:23N 37°37' E 008°45'512.5
2017-Aug-15 14:00N 37°38' E 008°51'612.5
2017-Aug-15 13:30N 37°39' E 008°59'912.6
2017-Aug-15 12:46N 37°39' E 009°11'612.5
2017-Aug-15 12:17N 37°39' E 009°18'412.6
2017-Aug-15 11:59N 37°39' E 009°23'612.5
2017-Aug-15 11:29N 37°39' E 009°31'912.2
2017-Aug-15 10:43N 37°39' E 009°43'312.2
2017-Aug-15 10:30N 37°40' E 009°46'5212.1
2017-Aug-15 06:10N 37°31' E 010°52'7612.6
2017-Aug-15 00:07N 37°03' E 012°21'212.7
2017-Aug-14 23:58N 37°03' E 012°23'612.7
2017-Aug-14 23:30N 37°01' E 012°30'613.0
2017-Aug-14 23:00N 36°59' E 012°38'713.2
2017-Aug-14 22:30N 36°57' E 012°46'713.1
2017-Aug-14 22:00N 36°54' E 012°53'713.2
2017-Aug-14 21:30N 36°52' E 013°01'713.3
2017-Aug-14 21:00N 36°50' E 013°09'713.1
2017-Aug-14 20:30N 36°48' E 013°17'713.0
2017-Aug-14 20:00N 36°46' E 013°25'612.9
2017-Aug-14 19:30N 36°44' E 013°32'713.0
2017-Aug-14 19:00N 36°42' E 013°40'712.9
2017-Aug-14 18:29N 36°40' E 013°48'612.6
2017-Aug-14 18:00N 36°38' E 013°55'612.5
2017-Aug-14 17:30N 36°36' E 014°02'612.4
2017-Aug-14 17:00N 36°34' E 014°10'612.3
2017-Aug-14 16:30N 36°32' E 014°17'612.0
2017-Aug-14 15:59N 36°30' E 014°24'611.8
2017-Aug-14 15:30N 36°28' E 014°31'611.7
2017-Aug-14 14:58N 36°26' E 014°38'  
2017-Aug-11 21:05N 35°52' E 030°22'  

Dump ship's entire track history